Terminal Aerodrome Forecast
Issued by NWS

Home | Current Version | Previous Version | Text Only | Print | Product List | Glossary On
Versions: 1 2 3 4 5 6 7 8 9 10 11 12 13 14 15 16 17 18 19 20
000
FTUS41 KPHI 201800 AAA
TAFMIV
TAF AMD
KMIV 201802Z 2018/2118 13010KT P6SM SCT040 BKN060
     FM210400 VRB02KT 4SM BR BKN020
     FM210800 VRB02KT 2SM BR BKN010
     FM211500 20005KT P6SM SCT020 BKN200=

USA.gov is the U.S. government's official web portal to all federal, state and local government web resources and services.